Главная страница
METAR-TAF:

METAR-TAF

Аэропорты :

Международный аэропорт имени Хосе Марти

Гавана, Куба

широта: 22-59N, долгота: 082-24W, высота над уровнем моря: 59 м

Текущие метеонаблюдения

Эта сводка был подготовлена 38 минут назад, в 14:55 UTC
Ветер 7 Узел от восточный, изменяющийся между восточно-северо-восточный и юго-восточный
Температура 25°C
Влажность 69%
Давление 1021 hPa
Видимость 10 км и более
Нет облачности ниже 1500 м, и нет кучево-дождевой облачности

METAR: MUHA 191455Z 10007KT 070V140 CAVOK 25/19 Q1021

Время: 10:33 (15:33 UTC)

Прогноз

Эта сводка был подготовлена 4 часа и 33 минут назад, в 11:00 UTC
Прогноз действительный с 19-го 12 UTC до 20-го 12 UTC
Ветер 10 Узел от восточный
Видимость: 9000 м
Отдельные облака на высоте 5000 фута
изменения
С 20-го 04 UTC до 20-го 06 UTC
Ветер 3 Узел переменных направлений

TAF: MUHA 191100Z 1912/2012 10010KT 9000 SCT050 BECMG 2004/2006 VRB03KT

Метеонаблюдения и прогнозы для более 4000 аэропортов (сводки METAR и TAF).

Имеющиеся станции представлены на карте желтыми и красными точками.

Чтобы увидеть название станции, наведите на нее мышь.

Затем щелкните, чтобы увидеть метеонаблюдения и метеопрогнозы.

Управление картой: чтобы увеличить масштаб, щелкните зеленые кнопки с черным крестиком; чтобы уменьшить масштаб, щелкните зеленую кнопку с тире; для просмотра соседних карт щелкайте зеленые стрелки.


METAR-TAF: